sensor_id;sensor_type;location;lat;lon;timestamp;P1;durP1;ratioP1;P2;durP2;ratioP2
14599;SDS011;7386;45.586;12.854;2023-03-08T00:00:36;19.57;;;12.00;;
14599;SDS011;7386;45.586;12.854;2023-03-08T00:03:04;17.57;;;11.63;;
14599;SDS011;7386;45.586;12.854;2023-03-08T00:05:32;22.40;;;13.20;;
14599;SDS011;7386;45.586;12.854;2023-03-08T00:08:01;24.13;;;14.57;;
14599;SDS011;7386;45.586;12.854;2023-03-08T00:10:31;28.53;;;19.00;;
14599;SDS011;7386;45.586;12.854;2023-03-08T00:13:00;28.40;;;20.30;;
14599;SDS011;7386;45.586;12.854;2023-03-08T00:15:28;35.23;;;23.50;;
14599;SDS011;7386;45.586;12.854;2023-03-08T00:17:56;31.90;;;23.10;;
14599;SDS011;7386;45.586;12.854;2023-03-08T00:20:25;40.00;;;27.07;;
14599;SDS011;7386;45.586;12.854;2023-03-08T00:22:53;37.77;;;25.57;;
14599;SDS011;7386;45.586;12.854;2023-03-08T00:25:22;32.50;;;24.47;;
14599;SDS011;7386;45.586;12.854;2023-03-08T00:27:52;34.70;;;24.57;;
14599;SDS011;7386;45.586;12.854;2023-03-08T00:30:20;33.10;;;24.70;;
14599;SDS011;7386;45.586;12.854;2023-03-08T00:32:49;33.43;;;25.20;;
14599;SDS011;7386;45.586;12.854;2023-03-08T00:35:17;40.93;;;25.20;;
14599;SDS011;7386;45.586;12.854;2023-03-08T00:37:46;38.37;;;25.63;;
14599;SDS011;7386;45.586;12.854;2023-03-08T00:40:14;38.57;;;25.33;;
14599;SDS011;7386;45.586;12.854;2023-03-08T00:42:43;32.10;;;24.23;;
14599;SDS011;7386;45.586;12.854;2023-03-08T00:45:13;34.67;;;24.87;;
14599;SDS011;7386;45.586;12.854;2023-03-08T00:47:41;34.77;;;25.50;;
14599;SDS011;7386;45.586;12.854;2023-03-08T00:50:10;33.40;;;25.13;;
14599;SDS011;7386;45.586;12.854;2023-03-08T00:52:38;34.50;;;25.77;;
14599;SDS011;7386;45.586;12.854;2023-03-08T00:55:07;36.47;;;25.97;;
14599;SDS011;7386;45.586;12.854;2023-03-08T00:57:35;40.57;;;26.80;;
14599;SDS011;7386;45.586;12.854;2023-03-08T01:00:04;38.40;;;26.97;;
14599;SDS011;7386;45.586;12.854;2023-03-08T01:02:37;39.87;;;26.40;;
14599;SDS011;7386;45.586;12.854;2023-03-08T01:05:06;37.43;;;26.37;;
14599;SDS011;7386;45.586;12.854;2023-03-08T01:07:35;39.47;;;26.17;;
14599;SDS011;7386;45.586;12.854;2023-03-08T01:10:04;36.03;;;25.83;;
14599;SDS011;7386;45.586;12.854;2023-03-08T01:12:33;42.20;;;27.87;;
14599;SDS011;7386;45.586;12.854;2023-03-08T01:15:02;39.03;;;27.57;;
14599;SDS011;7386;45.586;12.854;2023-03-08T01:17:31;37.77;;;25.67;;
14599;SDS011;7386;45.586;12.854;2023-03-08T01:20:01;37.70;;;27.30;;
14599;SDS011;7386;45.586;12.854;2023-03-08T01:22:30;38.37;;;26.93;;
14599;SDS011;7386;45.586;12.854;2023-03-08T01:24:59;39.40;;;26.87;;
14599;SDS011;7386;45.586;12.854;2023-03-08T01:27:27;40.83;;;27.83;;
14599;SDS011;7386;45.586;12.854;2023-03-08T01:29:56;36.47;;;25.90;;
14599;SDS011;7386;45.586;12.854;2023-03-08T01:32:24;40.53;;;25.87;;
14599;SDS011;7386;45.586;12.854;2023-03-08T01:34:53;38.63;;;26.47;;
14599;SDS011;7386;45.586;12.854;2023-03-08T01:37:22;39.80;;;26.23;;
14599;SDS011;7386;45.586;12.854;2023-03-08T01:39:51;42.90;;;26.83;;
14599;SDS011;7386;45.586;12.854;2023-03-08T01:42:19;42.33;;;27.10;;
14599;SDS011;7386;45.586;12.854;2023-03-08T01:44:49;41.63;;;26.33;;
14599;SDS011;7386;45.586;12.854;2023-03-08T01:47:18;35.03;;;25.20;;
14599;SDS011;7386;45.586;12.854;2023-03-08T01:49:47;35.80;;;26.13;;
14599;SDS011;7386;45.586;12.854;2023-03-08T01:52:17;37.83;;;25.90;;
14599;SDS011;7386;45.586;12.854;2023-03-08T01:54:48;38.73;;;26.33;;
14599;SDS011;7386;45.586;12.854;2023-03-08T01:57:19;37.70;;;25.23;;
14599;SDS011;7386;45.586;12.854;2023-03-08T01:59:48;39.47;;;26.23;;
14599;SDS011;7386;45.586;12.854;2023-03-08T02:02:17;38.43;;;26.73;;
14599;SDS011;7386;45.586;12.854;2023-03-08T02:04:46;47.20;;;29.43;;
14599;SDS011;7386;45.586;12.854;2023-03-08T02:07:14;40.03;;;28.00;;
14599;SDS011;7386;45.586;12.854;2023-03-08T02:09:43;37.67;;;27.17;;
14599;SDS011;7386;45.586;12.854;2023-03-08T02:12:13;36.43;;;26.93;;
14599;SDS011;7386;45.586;12.854;2023-03-08T02:14:41;35.87;;;26.40;;
14599;SDS011;7386;45.586;12.854;2023-03-08T02:17:10;36.73;;;26.57;;
14599;SDS011;7386;45.586;12.854;2023-03-08T02:19:40;37.40;;;26.93;;
14599;SDS011;7386;45.586;12.854;2023-03-08T02:22:13;40.43;;;27.43;;
14599;SDS011;7386;45.586;12.854;2023-03-08T02:24:43;36.97;;;27.13;;
14599;SDS011;7386;45.586;12.854;2023-03-08T02:27:12;38.33;;;26.67;;
14599;SDS011;7386;45.586;12.854;2023-03-08T02:29:42;38.03;;;26.97;;
14599;SDS011;7386;45.586;12.854;2023-03-08T02:32:10;40.63;;;26.60;;
14599;SDS011;7386;45.586;12.854;2023-03-08T02:34:39;36.60;;;25.73;;
14599;SDS011;7386;45.586;12.854;2023-03-08T02:37:08;39.03;;;26.20;;
14599;SDS011;7386;45.586;12.854;2023-03-08T02:39:36;38.37;;;26.80;;
14599;SDS011;7386;45.586;12.854;2023-03-08T02:42:06;35.97;;;25.33;;
14599;SDS011;7386;45.586;12.854;2023-03-08T02:44:35;35.70;;;25.83;;
14599;SDS011;7386;45.586;12.854;2023-03-08T02:47:03;40.73;;;26.80;;
14599;SDS011;7386;45.586;12.854;2023-03-08T02:49:31;37.70;;;26.00;;
14599;SDS011;7386;45.586;12.854;2023-03-08T02:52:00;37.63;;;26.07;;
14599;SDS011;7386;45.586;12.854;2023-03-08T02:54:28;37.40;;;26.93;;
14599;SDS011;7386;45.586;12.854;2023-03-08T02:56:57;35.47;;;25.80;;
14599;SDS011;7386;45.586;12.854;2023-03-08T02:59:27;38.23;;;26.83;;
14599;SDS011;7386;45.586;12.854;2023-03-08T03:01:56;35.83;;;25.77;;
14599;SDS011;7386;45.586;12.854;2023-03-08T03:04:27;38.77;;;26.40;;
14599;SDS011;7386;45.586;12.854;2023-03-08T03:06:56;39.17;;;25.73;;
14599;SDS011;7386;45.586;12.854;2023-03-08T03:09:24;33.87;;;24.60;;
14599;SDS011;7386;45.586;12.854;2023-03-08T03:11:53;34.93;;;24.63;;
14599;SDS011;7386;45.586;12.854;2023-03-08T03:14:22;32.63;;;23.83;;
14599;SDS011;7386;45.586;12.854;2023-03-08T03:16:52;34.03;;;23.10;;
14599;SDS011;7386;45.586;12.854;2023-03-08T03:19:20;36.23;;;23.57;;
14599;SDS011;7386;45.586;12.854;2023-03-08T03:21:48;32.77;;;22.23;;
14599;SDS011;7386;45.586;12.854;2023-03-08T03:24:17;29.03;;;21.60;;
14599;SDS011;7386;45.586;12.854;2023-03-08T03:26:45;31.43;;;21.93;;
14599;SDS011;7386;45.586;12.854;2023-03-08T03:29:16;28.17;;;20.20;;
14599;SDS011;7386;45.586;12.854;2023-03-08T03:31:45;27.40;;;19.93;;
14599;SDS011;7386;45.586;12.854;2023-03-08T03:34:15;28.83;;;19.33;;
14599;SDS011;7386;45.586;12.854;2023-03-08T03:36:44;26.40;;;18.67;;
14599;SDS011;7386;45.586;12.854;2023-03-08T03:39:12;24.90;;;18.43;;
14599;SDS011;7386;45.586;12.854;2023-03-08T03:41:40;24.73;;;17.13;;
14599;SDS011;7386;45.586;12.854;2023-03-08T03:44:09;25.67;;;17.97;;
14599;SDS011;7386;45.586;12.854;2023-03-08T03:46:37;25.53;;;16.13;;
14599;SDS011;7386;45.586;12.854;2023-03-08T03:49:06;23.13;;;16.43;;
14599;SDS011;7386;45.586;12.854;2023-03-08T03:51:35;22.60;;;16.00;;
14599;SDS011;7386;45.586;12.854;2023-03-08T03:54:04;20.73;;;15.03;;
14599;SDS011;7386;45.586;12.854;2023-03-08T03:56:32;19.93;;;14.40;;
14599;SDS011;7386;45.586;12.854;2023-03-08T03:59:01;22.33;;;14.13;;
14599;SDS011;7386;45.586;12.854;2023-03-08T04:01:30;18.67;;;13.00;;
14599;SDS011;7386;45.586;12.854;2023-03-08T04:03:58;17.43;;;12.93;;
14599;SDS011;7386;45.586;12.854;2023-03-08T04:06:28;22.57;;;12.93;;
14599;SDS011;7386;45.586;12.854;2023-03-08T04:08:59;19.77;;;12.73;;
14599;SDS011;7386;45.586;12.854;2023-03-08T04:11:30;19.83;;;12.53;;
14599;SDS011;7386;45.586;12.854;2023-03-08T04:13:59;20.90;;;12.77;;
14599;SDS011;7386;45.586;12.854;2023-03-08T04:16:28;21.20;;;13.00;;
14599;SDS011;7386;45.586;12.854;2023-03-08T04:18:57;17.57;;;12.07;;
14599;SDS011;7386;45.586;12.854;2023-03-08T04:21:26;22.20;;;12.57;;
14599;SDS011;7386;45.586;12.854;2023-03-08T04:23:55;17.87;;;11.83;;
14599;SDS011;7386;45.586;12.854;2023-03-08T04:26:27;19.20;;;12.87;;
14599;SDS011;7386;45.586;12.854;2023-03-08T04:28:56;23.33;;;14.40;;
14599;SDS011;7386;45.586;12.854;2023-03-08T04:31:26;24.60;;;16.03;;
14599;SDS011;7386;45.586;12.854;2023-03-08T04:33:54;22.87;;;16.40;;
14599;SDS011;7386;45.586;12.854;2023-03-08T04:36:23;25.50;;;18.33;;
14599;SDS011;7386;45.586;12.854;2023-03-08T04:38:52;26.87;;;19.23;;
14599;SDS011;7386;45.586;12.854;2023-03-08T04:41:20;26.57;;;19.60;;
14599;SDS011;7386;45.586;12.854;2023-03-08T04:43:50;29.17;;;19.33;;
14599;SDS011;7386;45.586;12.854;2023-03-08T04:46:20;30.20;;;21.33;;
14599;SDS011;7386;45.586;12.854;2023-03-08T04:48:49;31.73;;;22.57;;
14599;SDS011;7386;45.586;12.854;2023-03-08T04:51:20;33.17;;;22.33;;
14599;SDS011;7386;45.586;12.854;2023-03-08T04:53:48;33.67;;;23.50;;
14599;SDS011;7386;45.586;12.854;2023-03-08T04:56:17;34.73;;;23.83;;
14599;SDS011;7386;45.586;12.854;2023-03-08T04:58:46;34.17;;;25.13;;
14599;SDS011;7386;45.586;12.854;2023-03-08T05:01:16;34.77;;;25.17;;
14599;SDS011;7386;45.586;12.854;2023-03-08T05:03:45;36.10;;;25.17;;
14599;SDS011;7386;45.586;12.854;2023-03-08T05:06:15;37.63;;;24.97;;
14599;SDS011;7386;45.586;12.854;2023-03-08T05:08:43;39.77;;;26.37;;
14599;SDS011;7386;45.586;12.854;2023-03-08T05:11:14;41.40;;;26.90;;
14599;SDS011;7386;45.586;12.854;2023-03-08T05:13:44;39.87;;;28.07;;
14599;SDS011;7386;45.586;12.854;2023-03-08T05:16:12;44.53;;;27.73;;
14599;SDS011;7386;45.586;12.854;2023-03-08T05:18:43;40.40;;;27.80;;
14599;SDS011;7386;45.586;12.854;2023-03-08T05:21:12;39.63;;;27.63;;
14599;SDS011;7386;45.586;12.854;2023-03-08T05:23:41;41.10;;;28.50;;
14599;SDS011;7386;45.586;12.854;2023-03-08T05:26:10;40.97;;;28.77;;
14599;SDS011;7386;45.586;12.854;2023-03-08T05:28:39;39.03;;;27.93;;
14599;SDS011;7386;45.586;12.854;2023-03-08T05:31:09;41.07;;;28.77;;
14599;SDS011;7386;45.586;12.854;2023-03-08T05:33:38;42.30;;;29.57;;
14599;SDS011;7386;45.586;12.854;2023-03-08T05:36:09;39.17;;;27.83;;
14599;SDS011;7386;45.586;12.854;2023-03-08T05:38:37;45.00;;;28.70;;
14599;SDS011;7386;45.586;12.854;2023-03-08T05:41:07;39.17;;;27.83;;
14599;SDS011;7386;45.586;12.854;2023-03-08T05:43:35;42.20;;;28.50;;
14599;SDS011;7386;45.586;12.854;2023-03-08T05:46:05;40.23;;;28.60;;
14599;SDS011;7386;45.586;12.854;2023-03-08T05:48:34;41.33;;;29.30;;
14599;SDS011;7386;45.586;12.854;2023-03-08T05:51:03;41.17;;;29.10;;
14599;SDS011;7386;45.586;12.854;2023-03-08T05:53:34;42.27;;;30.33;;
14599;SDS011;7386;45.586;12.854;2023-03-08T05:56:06;40.40;;;28.70;;
14599;SDS011;7386;45.586;12.854;2023-03-08T05:58:35;40.23;;;28.43;;
14599;SDS011;7386;45.586;12.854;2023-03-08T06:01:07;44.40;;;29.57;;
14599;SDS011;7386;45.586;12.854;2023-03-08T06:03:36;40.97;;;29.27;;
14599;SDS011;7386;45.586;12.854;2023-03-08T06:06:04;44.20;;;31.07;;
14599;SDS011;7386;45.586;12.854;2023-03-08T06:08:34;41.83;;;28.83;;
14599;SDS011;7386;45.586;12.854;2023-03-08T06:11:03;38.47;;;28.37;;
14599;SDS011;7386;45.586;12.854;2023-03-08T06:13:31;40.57;;;28.17;;
14599;SDS011;7386;45.586;12.854;2023-03-08T06:16:00;40.83;;;27.60;;
14599;SDS011;7386;45.586;12.854;2023-03-08T06:18:28;38.37;;;27.43;;
14599;SDS011;7386;45.586;12.854;2023-03-08T06:20:57;39.93;;;28.93;;
14599;SDS011;7386;45.586;12.854;2023-03-08T06:23:26;40.57;;;29.03;;
14599;SDS011;7386;45.586;12.854;2023-03-08T06:25:56;36.70;;;27.40;;
14599;SDS011;7386;45.586;12.854;2023-03-08T06:28:26;36.97;;;27.47;;
14599;SDS011;7386;45.586;12.854;2023-03-08T06:30:54;36.47;;;26.40;;
14599;SDS011;7386;45.586;12.854;2023-03-08T06:33:25;37.23;;;26.50;;
14599;SDS011;7386;45.586;12.854;2023-03-08T06:35:54;35.87;;;25.83;;
14599;SDS011;7386;45.586;12.854;2023-03-08T06:38:23;38.20;;;26.67;;
14599;SDS011;7386;45.586;12.854;2023-03-08T06:40:56;35.40;;;25.57;;
14599;SDS011;7386;45.586;12.854;2023-03-08T06:43:24;37.17;;;26.40;;
14599;SDS011;7386;45.586;12.854;2023-03-08T06:45:53;35.63;;;25.23;;
14599;SDS011;7386;45.586;12.854;2023-03-08T06:48:22;41.63;;;26.73;;
14599;SDS011;7386;45.586;12.854;2023-03-08T06:50:50;32.47;;;24.67;;
14599;SDS011;7386;45.586;12.854;2023-03-08T06:53:19;34.23;;;25.53;;
14599;SDS011;7386;45.586;12.854;2023-03-08T06:55:47;36.53;;;26.37;;
14599;SDS011;7386;45.586;12.854;2023-03-08T06:58:17;39.40;;;26.13;;
14599;SDS011;7386;45.586;12.854;2023-03-08T07:00:45;33.97;;;25.77;;
14599;SDS011;7386;45.586;12.854;2023-03-08T07:03:14;32.97;;;24.63;;
14599;SDS011;7386;45.586;12.854;2023-03-08T07:05:43;38.83;;;25.90;;
14599;SDS011;7386;45.586;12.854;2023-03-08T07:08:11;40.13;;;26.27;;
14599;SDS011;7386;45.586;12.854;2023-03-08T07:10:40;51.17;;;31.47;;
14599;SDS011;7386;45.586;12.854;2023-03-08T07:13:08;52.40;;;30.23;;
14599;SDS011;7386;45.586;12.854;2023-03-08T07:15:39;51.40;;;30.83;;
14599;SDS011;7386;45.586;12.854;2023-03-08T07:18:07;51.00;;;29.63;;
14599;SDS011;7386;45.586;12.854;2023-03-08T07:20:36;50.97;;;31.90;;
14599;SDS011;7386;45.586;12.854;2023-03-08T07:23:04;49.40;;;30.87;;
14599;SDS011;7386;45.586;12.854;2023-03-08T07:25:32;52.47;;;30.17;;
14599;SDS011;7386;45.586;12.854;2023-03-08T07:28:01;58.57;;;31.40;;
14599;SDS011;7386;45.586;12.854;2023-03-08T07:30:29;39.20;;;25.63;;
14599;SDS011;7386;45.586;12.854;2023-03-08T07:32:59;28.03;;;17.03;;
14599;SDS011;7386;45.586;12.854;2023-03-08T07:35:28;48.50;;;26.17;;
14599;SDS011;7386;45.586;12.854;2023-03-08T07:37:56;42.77;;;27.43;;
14599;SDS011;7386;45.586;12.854;2023-03-08T07:40:25;48.67;;;28.93;;
14599;SDS011;7386;45.586;12.854;2023-03-08T07:42:54;43.37;;;28.20;;
14599;SDS011;7386;45.586;12.854;2023-03-08T07:45:22;39.17;;;26.37;;
14599;SDS011;7386;45.586;12.854;2023-03-08T07:47:51;32.30;;;21.53;;
14599;SDS011;7386;45.586;12.854;2023-03-08T07:50:21;26.03;;;17.13;;
14599;SDS011;7386;45.586;12.854;2023-03-08T07:52:49;34.27;;;21.37;;
14599;SDS011;7386;45.586;12.854;2023-03-08T07:55:17;32.73;;;22.13;;
14599;SDS011;7386;45.586;12.854;2023-03-08T07:57:46;32.27;;;21.30;;
14599;SDS011;7386;45.586;12.854;2023-03-08T08:00:15;28.00;;;20.57;;
14599;SDS011;7386;45.586;12.854;2023-03-08T08:02:44;33.10;;;20.23;;
14599;SDS011;7386;45.586;12.854;2023-03-08T08:05:13;24.85;;;17.38;;
14599;SDS011;7386;45.586;12.854;2023-03-08T08:07:45;19.77;;;13.60;;
14599;SDS011;7386;45.586;12.854;2023-03-08T08:10:14;24.10;;;15.17;;
14599;SDS011;7386;45.586;12.854;2023-03-08T08:12:43;21.53;;;15.17;;
14599;SDS011;7386;45.586;12.854;2023-03-08T08:15:11;24.83;;;14.87;;
14599;SDS011;7386;45.586;12.854;2023-03-08T08:17:39;20.80;;;14.20;;
14599;SDS011;7386;45.586;12.854;2023-03-08T08:20:08;17.80;;;11.33;;
14599;SDS011;7386;45.586;12.854;2023-03-08T08:22:37;15.30;;;11.07;;
14599;SDS011;7386;45.586;12.854;2023-03-08T08:25:07;17.97;;;11.97;;
14599;SDS011;7386;45.586;12.854;2023-03-08T08:27:36;18.73;;;11.47;;
14599;SDS011;7386;45.586;12.854;2023-03-08T08:30:06;17.80;;;11.30;;
14599;SDS011;7386;45.586;12.854;2023-03-08T08:32:35;22.07;;;15.07;;
14599;SDS011;7386;45.586;12.854;2023-03-08T08:35:03;16.37;;;11.10;;
14599;SDS011;7386;45.586;12.854;2023-03-08T08:37:32;16.93;;;10.47;;
14599;SDS011;7386;45.586;12.854;2023-03-08T08:40:01;12.90;;;10.07;;
14599;SDS011;7386;45.586;12.854;2023-03-08T08:42:34;13.73;;;9.60;;
14599;SDS011;7386;45.586;12.854;2023-03-08T08:45:03;17.70;;;10.77;;
14599;SDS011;7386;45.586;12.854;2023-03-08T08:47:31;19.00;;;10.77;;
14599;SDS011;7386;45.586;12.854;2023-03-08T08:50:00;13.83;;;10.20;;
14599;SDS011;7386;45.586;12.854;2023-03-08T08:52:28;15.30;;;9.37;;
14599;SDS011;7386;45.586;12.854;2023-03-08T08:54:57;16.30;;;11.13;;
14599;SDS011;7386;45.586;12.854;2023-03-08T08:57:25;15.20;;;9.80;;
14599;SDS011;7386;45.586;12.854;2023-03-08T08:59:55;13.77;;;9.60;;
14599;SDS011;7386;45.586;12.854;2023-03-08T09:02:24;17.70;;;9.60;;
14599;SDS011;7386;45.586;12.854;2023-03-08T09:04:52;12.90;;;8.93;;
14599;SDS011;7386;45.586;12.854;2023-03-08T09:07:21;14.20;;;8.97;;
14599;SDS011;7386;45.586;12.854;2023-03-08T09:09:49;10.80;;;7.93;;
14599;SDS011;7386;45.586;12.854;2023-03-08T09:12:18;12.27;;;8.63;;
14599;SDS011;7386;45.586;12.854;2023-03-08T09:14:47;13.63;;;8.60;;
14599;SDS011;7386;45.586;12.854;2023-03-08T09:17:17;14.40;;;8.77;;
14599;SDS011;7386;45.586;12.854;2023-03-08T09:19:45;13.23;;;8.90;;
14599;SDS011;7386;45.586;12.854;2023-03-08T09:22:13;15.00;;;9.87;;
14599;SDS011;7386;45.586;12.854;2023-03-08T09:24:42;12.33;;;8.63;;
14599;SDS011;7386;45.586;12.854;2023-03-08T09:27:11;18.43;;;7.97;;
14599;SDS011;7386;45.586;12.854;2023-03-08T09:29:39;13.07;;;7.93;;
14599;SDS011;7386;45.586;12.854;2023-03-08T09:32:08;10.80;;;8.23;;
14599;SDS011;7386;45.586;12.854;2023-03-08T09:34:37;14.50;;;9.53;;
14599;SDS011;7386;45.586;12.854;2023-03-08T09:37:06;12.27;;;8.03;;
14599;SDS011;7386;45.586;12.854;2023-03-08T09:39:34;15.07;;;8.90;;
14599;SDS011;7386;45.586;12.854;2023-03-08T09:42:03;12.53;;;7.87;;
14599;SDS011;7386;45.586;12.854;2023-03-08T09:47:18;13.10;;;8.03;;
14599;SDS011;7386;45.586;12.854;2023-03-08T09:49:51;13.70;;;8.20;;
14599;SDS011;7386;45.586;12.854;2023-03-08T09:52:23;12.03;;;8.10;;
14599;SDS011;7386;45.586;12.854;2023-03-08T09:54:55;13.27;;;8.07;;
14599;SDS011;7386;45.586;12.854;2023-03-08T09:57:26;13.23;;;8.20;;
14599;SDS011;7386;45.586;12.854;2023-03-08T09:59:57;12.70;;;8.20;;
14599;SDS011;7386;45.586;12.854;2023-03-08T10:02:29;10.13;;;7.03;;
14599;SDS011;7386;45.586;12.854;2023-03-08T10:05:03;21.00;;;12.20;;
14599;SDS011;7386;45.586;12.854;2023-03-08T10:07:49;14.20;;;10.03;;
14599;SDS011;7386;45.586;12.854;2023-03-08T10:10:32;17.03;;;8.37;;
14599;SDS011;7386;45.586;12.854;2023-03-08T10:13:09;18.77;;;12.23;;
14599;SDS011;7386;45.586;12.854;2023-03-08T10:15:45;25.60;;;15.13;;
14599;SDS011;7386;45.586;12.854;2023-03-08T10:18:15;24.03;;;13.20;;
14599;SDS011;7386;45.586;12.854;2023-03-08T10:20:46;17.87;;;10.00;;
14599;SDS011;7386;45.586;12.854;2023-03-08T10:23:16;24.13;;;13.83;;
14599;SDS011;7386;45.586;12.854;2023-03-08T10:25:45;37.57;;;22.63;;
14599;SDS011;7386;45.586;12.854;2023-03-08T10:28:14;22.20;;;14.17;;
14599;SDS011;7386;45.586;12.854;2023-03-08T10:30:44;17.17;;;10.77;;
14599;SDS011;7386;45.586;12.854;2023-03-08T10:33:14;13.30;;;9.53;;
14599;SDS011;7386;45.586;12.854;2023-03-08T10:35:56;30.87;;;19.33;;
14599;SDS011;7386;45.586;12.854;2023-03-08T10:38:26;27.37;;;15.93;;
14599;SDS011;7386;45.586;12.854;2023-03-08T10:40:59;18.70;;;13.00;;
14599;SDS011;7386;45.586;12.854;2023-03-08T10:43:28;17.20;;;10.70;;
14599;SDS011;7386;45.586;12.854;2023-03-08T10:45:58;32.20;;;20.40;;
14599;SDS011;7386;45.586;12.854;2023-03-08T10:48:27;26.13;;;16.63;;
14599;SDS011;7386;45.586;12.854;2023-03-08T10:51:00;25.80;;;14.10;;
14599;SDS011;7386;45.586;12.854;2023-03-08T10:53:29;16.90;;;10.73;;
14599;SDS011;7386;45.586;12.854;2023-03-08T10:55:58;35.80;;;21.63;;
14599;SDS011;7386;45.586;12.854;2023-03-08T10:58:29;33.57;;;20.93;;
14599;SDS011;7386;45.586;12.854;2023-03-08T11:00:59;24.97;;;16.90;;
14599;SDS011;7386;45.586;12.854;2023-03-08T11:03:27;20.07;;;12.43;;
14599;SDS011;7386;45.586;12.854;2023-03-08T11:05:57;20.90;;;13.83;;
14599;SDS011;7386;45.586;12.854;2023-03-08T11:08:28;39.17;;;24.10;;
14599;SDS011;7386;45.586;12.854;2023-03-08T11:11:01;36.20;;;21.27;;
14599;SDS011;7386;45.586;12.854;2023-03-08T11:13:29;22.23;;;14.03;;
14599;SDS011;7386;45.586;12.854;2023-03-08T11:16:01;26.47;;;16.53;;
14599;SDS011;7386;45.586;12.854;2023-03-08T11:18:36;39.70;;;24.43;;
14599;SDS011;7386;45.586;12.854;2023-03-08T11:21:09;25.93;;;16.97;;
14599;SDS011;7386;45.586;12.854;2023-03-08T11:23:43;18.40;;;12.57;;
14599;SDS011;7386;45.586;12.854;2023-03-08T11:26:14;28.83;;;18.77;;
14599;SDS011;7386;45.586;12.854;2023-03-08T11:28:50;49.40;;;32.95;;
14599;SDS011;7386;45.586;12.854;2023-03-08T11:31:22;22.50;;;15.53;;
14599;SDS011;7386;45.586;12.854;2023-03-08T11:36:39;40.97;;;26.73;;
14599;SDS011;7386;45.586;12.854;2023-03-08T11:39:16;32.20;;;20.27;;
14599;SDS011;7386;45.586;12.854;2023-03-08T11:41:48;16.93;;;10.70;;
14599;SDS011;7386;45.586;12.854;2023-03-08T11:44:32;33.80;;;21.13;;
14599;SDS011;7386;45.586;12.854;2023-03-08T11:47:15;25.00;;;14.27;;
14599;SDS011;7386;45.586;12.854;2023-03-08T11:49:53;18.93;;;9.93;;
14599;SDS011;7386;45.586;12.854;2023-03-08T11:52:32;27.60;;;17.60;;
14599;SDS011;7386;45.586;12.854;2023-03-08T11:55:25;34.83;;;21.97;;
14599;SDS011;7386;45.586;12.854;2023-03-08T11:57:57;19.70;;;14.10;;
14599;SDS011;7386;45.586;12.854;2023-03-08T12:00:30;14.63;;;10.07;;
14599;SDS011;7386;45.586;12.854;2023-03-08T12:03:00;34.63;;;22.00;;
14599;SDS011;7386;45.586;12.854;2023-03-08T12:05:33;31.83;;;19.77;;
14599;SDS011;7386;45.586;12.854;2023-03-08T12:08:03;22.47;;;11.87;;
14599;SDS011;7386;45.586;12.854;2023-03-08T12:10:35;35.30;;;21.60;;
14599;SDS011;7386;45.586;12.854;2023-03-08T12:13:11;38.17;;;23.20;;
14599;SDS011;7386;45.586;12.854;2023-03-08T12:15:43;25.27;;;16.70;;
14599;SDS011;7386;45.586;12.854;2023-03-08T12:18:14;18.43;;;11.33;;
14599;SDS011;7386;45.586;12.854;2023-03-08T12:20:43;43.33;;;28.23;;
14599;SDS011;7386;45.586;12.854;2023-03-08T12:23:15;40.17;;;25.77;;
14599;SDS011;7386;45.586;12.854;2023-03-08T12:25:49;27.20;;;16.57;;
14599;SDS011;7386;45.586;12.854;2023-03-08T12:28:19;21.03;;;12.20;;
14599;SDS011;7386;45.586;12.854;2023-03-08T12:30:53;34.43;;;21.93;;
14599;SDS011;7386;45.586;12.854;2023-03-08T12:33:23;44.80;;;26.83;;
14599;SDS011;7386;45.586;12.854;2023-03-08T12:35:55;28.13;;;16.37;;
14599;SDS011;7386;45.586;12.854;2023-03-08T12:38:27;18.70;;;11.70;;
14599;SDS011;7386;45.586;12.854;2023-03-08T12:40:58;35.50;;;21.43;;
14599;SDS011;7386;45.586;12.854;2023-03-08T12:43:27;33.93;;;21.00;;
14599;SDS011;7386;45.586;12.854;2023-03-08T12:46:00;21.87;;;13.80;;
14599;SDS011;7386;45.586;12.854;2023-03-08T12:48:30;19.00;;;11.60;;
14599;SDS011;7386;45.586;12.854;2023-03-08T12:51:01;31.10;;;20.33;;
14599;SDS011;7386;45.586;12.854;2023-03-08T12:53:32;24.67;;;15.80;;
14599;SDS011;7386;45.586;12.854;2023-03-08T12:56:20;14.13;;;10.23;;
14599;SDS011;7386;45.586;12.854;2023-03-08T12:58:50;25.70;;;16.20;;
14599;SDS011;7386;45.586;12.854;2023-03-08T13:01:28;27.87;;;17.77;;
14599;SDS011;7386;45.586;12.854;2023-03-08T13:03:57;20.67;;;12.70;;
14599;SDS011;7386;45.586;12.854;2023-03-08T13:09:12;28.77;;;18.20;;
14599;SDS011;7386;45.586;12.854;2023-03-08T13:11:45;24.57;;;15.17;;
14599;SDS011;7386;45.586;12.854;2023-03-08T13:14:22;16.53;;;9.17;;
14599;SDS011;7386;45.586;12.854;2023-03-08T13:16:51;25.97;;;16.60;;
14599;SDS011;7386;45.586;12.854;2023-03-08T13:19:22;28.57;;;17.20;;
14599;SDS011;7386;45.586;12.854;2023-03-08T13:21:54;20.43;;;12.33;;
14599;SDS011;7386;45.586;12.854;2023-03-08T13:24:29;12.00;;;8.57;;
14599;SDS011;7386;45.586;12.854;2023-03-08T13:27:04;26.63;;;16.73;;
14599;SDS011;7386;45.586;12.854;2023-03-08T13:29:36;24.33;;;14.80;;
14599;SDS011;7386;45.586;12.854;2023-03-08T13:32:04;16.07;;;10.20;;
14599;SDS011;7386;45.586;12.854;2023-03-08T13:34:35;16.67;;;11.33;;
14599;SDS011;7386;45.586;12.854;2023-03-08T13:37:03;29.53;;;16.77;;
14599;SDS011;7386;45.586;12.854;2023-03-08T13:39:32;15.10;;;10.50;;
14599;SDS011;7386;45.586;12.854;2023-03-08T13:42:05;19.47;;;12.90;;
14599;SDS011;7386;45.586;12.854;2023-03-08T13:44:34;25.70;;;14.17;;
14599;SDS011;7386;45.586;12.854;2023-03-08T13:47:03;15.80;;;10.67;;
14599;SDS011;7386;45.586;12.854;2023-03-08T13:49:41;24.37;;;14.97;;
14599;SDS011;7386;45.586;12.854;2023-03-08T13:52:12;34.70;;;22.17;;
14599;SDS011;7386;45.586;12.854;2023-03-08T13:54:43;25.27;;;15.77;;
14599;SDS011;7386;45.586;12.854;2023-03-08T13:57:18;24.40;;;14.03;;
14599;SDS011;7386;45.586;12.854;2023-03-08T13:59:48;28.50;;;18.60;;
14599;SDS011;7386;45.586;12.854;2023-03-08T14:02:18;25.23;;;15.27;;
14599;SDS011;7386;45.586;12.854;2023-03-08T14:04:46;17.67;;;10.93;;
14599;SDS011;7386;45.586;12.854;2023-03-08T14:07:19;26.60;;;16.87;;
14599;SDS011;7386;45.586;12.854;2023-03-08T14:09:48;36.23;;;22.37;;
14599;SDS011;7386;45.586;12.854;2023-03-08T14:12:18;23.77;;;15.60;;
14599;SDS011;7386;45.586;12.854;2023-03-08T14:14:48;21.93;;;14.20;;
14599;SDS011;7386;45.586;12.854;2023-03-08T14:17:19;28.83;;;18.03;;
14599;SDS011;7386;45.586;12.854;2023-03-08T14:19:51;35.63;;;22.93;;
14599;SDS011;7386;45.586;12.854;2023-03-08T14:22:21;43.10;;;25.27;;
14599;SDS011;7386;45.586;12.854;2023-03-08T14:25:04;42.33;;;25.20;;
14599;SDS011;7386;45.586;12.854;2023-03-08T14:27:38;36.07;;;23.37;;
14599;SDS011;7386;45.586;12.854;2023-03-08T14:30:10;36.70;;;23.50;;
14599;SDS011;7386;45.586;12.854;2023-03-08T14:32:39;39.20;;;24.30;;
14599;SDS011;7386;45.586;12.854;2023-03-08T14:35:14;36.80;;;23.63;;
14599;SDS011;7386;45.586;12.854;2023-03-08T14:37:44;32.83;;;21.17;;
14599;SDS011;7386;45.586;12.854;2023-03-08T14:40:18;33.27;;;20.23;;
14599;SDS011;7386;45.586;12.854;2023-03-08T14:42:51;36.67;;;21.53;;
14599;SDS011;7386;45.586;12.854;2023-03-08T14:45:21;34.27;;;22.53;;
14599;SDS011;7386;45.586;12.854;2023-03-08T14:47:51;37.97;;;22.00;;